Time;durP1;ratioP1;P1;durP2;ratioP2;P2;SDS_P1;SDS_P2;PMS_P1;PMS_P2;Temp;Humidity;BMP_temperature;BMP_pressure;BME280_temperature;BME280_humidity;BME280_pressure;Samples;Min_cycle;Max_cycle;Signal;HPM_P1;HPM_P2
2020/12/07 00:01:13;;;;;;;68.28;34.22;;;3.90;97.60;;;;;;4915988;28;20131;-66
2020/12/07 00:03:38;;;;;;;61.88;32.35;;;3.90;97.60;;;;;;4916922;29;20156;-65
2020/12/07 00:06:04;;;;;;;55.45;31.83;;;3.90;97.60;;;;;;4910652;28;20114;-66
2020/12/07 00:08:29;;;;;;;60.08;31.08;;;3.90;97.60;;;;;;4918200;29;20111;-66
2020/12/07 00:10:55;;;;;;;57.92;30.95;;;3.90;97.60;;;;;;4922731;29;20036;-66
2020/12/07 00:13:21;;;;;;;58.30;31.38;;;3.90;97.60;;;;;;4910174;29;20051;-66
2020/12/07 00:15:46;;;;;;;62.05;31.67;;;3.90;97.60;;;;;;4907538;29;20472;-65
2020/12/07 00:18:12;;;;;;;61.63;31.98;;;3.90;97.60;;;;;;4914676;29;20039;-66
2020/12/07 00:20:37;;;;;;;57.63;30.65;;;3.90;97.60;;;;;;4946526;28;20051;-66
2020/12/07 00:23:03;;;;;;;59.97;30.42;;;3.90;97.60;;;;;;4933372;28;20024;-65
2020/12/07 00:25:29;;;;;;;58.70;30.90;;;4.00;97.60;;;;;;4891099;29;20040;-66
2020/12/07 00:27:54;;;;;;;61.30;31.27;;;3.90;97.60;;;;;;4918313;28;20032;-66
2020/12/07 00:30:20;;;;;;;61.45;31.38;;;4.00;97.60;;;;;;4907888;29;20485;-66
2020/12/07 00:32:46;;;;;;;60.08;31.73;;;4.00;97.60;;;;;;4909996;29;20032;-66
2020/12/07 00:35:11;;;;;;;63.83;33.50;;;4.00;97.70;;;;;;4926308;29;20062;-66
2020/12/07 00:37:37;;;;;;;59.42;31.00;;;4.00;97.70;;;;;;4927841;28;20137;-66
2020/12/07 00:40:03;;;;;;;60.05;32.13;;;4.00;97.60;;;;;;4943358;29;20036;-66
2020/12/07 00:42:29;;;;;;;58.53;31.33;;;4.00;97.60;;;;;;4910708;28;20046;-66
2020/12/07 00:44:54;;;;;;;60.17;31.55;;;4.10;97.70;;;;;;4908301;29;20032;-66
2020/12/07 00:47:20;;;;;;;55.45;30.50;;;4.10;97.60;;;;;;4918439;29;20257;-66
2020/12/07 00:49:45;;;;;;;65.35;31.60;;;4.10;97.60;;;;;;4926286;29;20055;-64
2020/12/07 00:52:11;;;;;;;65.80;30.90;;;4.10;97.70;;;;;;4927001;29;20024;-65
2020/12/07 00:54:37;;;;;;;68.60;32.40;;;4.10;97.70;;;;;;4907187;29;20043;-66
2020/12/07 00:57:04;;;;;;;64.32;30.55;;;4.10;97.70;;;;;;4926153;29;20031;-66
2020/12/07 00:59:29;;;;;;;66.68;31.88;;;4.10;97.70;;;;;;4921553;28;20118;-66
2020/12/07 01:01:56;;;;;;;71.32;31.40;;;4.10;97.70;;;;;;4946041;28;20102;-65
2020/12/07 01:04:22;;;;;;;56.58;29.08;;;4.10;97.70;;;;;;4912491;28;20066;-65
2020/12/07 01:06:48;;;;;;;66.38;31.17;;;4.20;97.70;;;;;;4916248;29;20466;-66
2020/12/07 01:09:15;;;;;;;61.60;31.13;;;4.10;97.70;;;;;;4920902;29;20047;-66
2020/12/07 01:11:44;;;;;;;62.47;29.95;;;4.10;97.70;;;;;;4936275;29;20073;-66
2020/12/07 01:14:14;;;;;;;63.60;30.73;;;4.10;97.70;;;;;;4926257;28;20028;-66
2020/12/07 01:16:40;;;;;;;62.25;29.60;;;4.10;97.70;;;;;;4928071;29;20089;-66
2020/12/07 01:19:07;;;;;;;59.65;29.98;;;4.20;97.70;;;;;;4936405;28;20124;-66
2020/12/07 01:21:33;;;;;;;69.15;31.38;;;4.20;97.70;;;;;;4933841;28;20040;-66
2020/12/07 01:24:00;;;;;;;66.07;29.13;;;4.20;97.80;;;;;;4993159;28;20083;-66
2020/12/07 01:26:26;;;;;;;64.90;30.55;;;4.20;97.80;;;;;;4917725;29;20082;-66
2020/12/07 01:28:53;;;;;;;66.07;31.77;;;4.30;97.80;;;;;;4926656;29;20032;-66
2020/12/07 01:31:18;;;;;;;73.18;31.38;;;4.30;97.80;;;;;;4905376;28;20445;-66
2020/12/07 01:33:45;;;;;;;73.07;31.08;;;4.30;97.90;;;;;;4915217;29;20036;-65
2020/12/07 01:36:11;;;;;;;74.10;30.90;;;4.30;97.90;;;;;;4921707;29;20465;-66
2020/12/07 01:38:38;;;;;;;70.15;30.90;;;4.40;97.90;;;;;;4925320;29;20507;-66
2020/12/07 01:41:03;;;;;;;66.30;30.60;;;4.40;97.90;;;;;;4924977;29;20051;-66
2020/12/07 01:43:29;;;;;;;63.08;28.90;;;4.40;97.90;;;;;;4924411;29;20039;-66
2020/12/07 01:45:56;;;;;;;68.35;29.75;;;4.50;98.00;;;;;;4935419;28;20112;-66
2020/12/07 01:48:24;;;;;;;68.68;29.75;;;4.50;97.90;;;;;;4921068;29;20035;-67
2020/12/07 01:50:51;;;;;;;64.10;29.38;;;4.50;97.90;;;;;;4945529;28;20030;-66
2020/12/07 01:53:17;;;;;;;66.90;29.25;;;4.50;97.90;;;;;;4919457;28;20512;-65
2020/12/07 01:55:44;;;;;;;62.63;29.52;;;4.50;97.90;;;;;;4927795;29;20038;-66
2020/12/07 01:58:10;;;;;;;62.97;28.88;;;4.50;97.90;;;;;;4917142;29;20325;-66
2020/12/07 02:00:36;;;;;;;60.50;30.25;;;4.50;97.90;;;;;;4926310;29;20083;-66
2020/12/07 02:03:02;;;;;;;71.78;30.75;;;4.60;97.90;;;;;;4919576;29;20084;-66
2020/12/07 02:05:28;;;;;;;65.05;30.67;;;4.60;97.90;;;;;;4902627;28;20032;-66
2020/12/07 02:08:23;;;;;;;63.03;30.13;;;4.60;97.90;;;;;;4927304;29;20092;-66
2020/12/07 02:10:48;;;;;;;64.72;31.48;;;4.60;97.90;;;;;;4925012;29;20166;-66
2020/12/07 02:13:14;;;;;;;64.03;30.95;;;4.60;97.80;;;;;;4916271;29;20134;-66
2020/12/07 02:15:40;;;;;;;64.25;30.15;;;4.60;97.90;;;;;;4910074;29;20181;-66
2020/12/07 02:18:07;;;;;;;61.92;31.20;;;4.60;97.80;;;;;;4915578;29;20040;-66
2020/12/07 02:20:34;;;;;;;65.35;31.20;;;4.60;97.80;;;;;;4910466;29;20099;-66
2020/12/07 02:23:00;;;;;;;60.45;31.48;;;4.70;97.80;;;;;;4915985;29;20193;-66
2020/12/07 02:25:26;;;;;;;60.28;31.10;;;4.60;97.80;;;;;;4921384;29;20664;-66
2020/12/07 02:27:52;;;;;;;58.85;28.90;;;4.70;97.80;;;;;;4922105;29;20074;-66
2020/12/07 02:30:19;;;;;;;59.53;30.17;;;4.70;97.80;;;;;;4927868;29;20039;-66
2020/12/07 02:32:46;;;;;;;62.97;29.73;;;4.70;97.80;;;;;;4925382;29;20036;-65
2020/12/07 02:35:13;;;;;;;57.58;31.63;;;4.70;97.80;;;;;;4940275;29;20385;-66
2020/12/07 02:37:39;;;;;;;64.20;32.05;;;4.70;97.80;;;;;;4929833;28;20049;-66
2020/12/07 02:40:06;;;;;;;62.92;30.98;;;4.80;97.80;;;;;;4928387;29;20111;-66
2020/12/07 02:42:33;;;;;;;59.88;30.85;;;4.80;97.80;;;;;;4923749;29;20164;-66
2020/12/07 02:45:04;;;;;;;69.18;32.08;;;4.80;97.90;;;;;;4928553;29;20034;-67
2020/12/07 02:47:30;;;;;;;67.78;30.60;;;4.80;97.90;;;;;;4916470;29;20035;-66
2020/12/07 02:49:55;;;;;;;58.55;30.15;;;4.80;97.90;;;;;;4905507;29;20032;-66
2020/12/07 02:52:25;;;;;;;61.92;30.80;;;4.80;97.90;;;;;;4927403;28;20027;-66
2020/12/07 02:54:55;;;;;;;61.70;31.10;;;4.80;97.90;;;;;;4947240;28;20019;-66
2020/12/07 02:57:21;;;;;;;61.05;31.60;;;4.80;97.90;;;;;;4908680;28;20443;-66
2020/12/07 02:59:47;;;;;;;69.25;32.17;;;4.80;98.00;;;;;;4916053;28;20350;-67
2020/12/07 03:02:13;;;;;;;60.92;30.50;;;4.80;98.00;;;;;;4918747;29;20031;-66
2020/12/07 03:04:39;;;;;;;65.22;31.75;;;4.80;98.00;;;;;;4913097;29;20463;-67
2020/12/07 03:07:05;;;;;;;70.30;31.65;;;4.80;98.00;;;;;;4917275;28;20033;-66
2020/12/07 03:09:30;;;;;;;66.78;31.92;;;4.80;98.10;;;;;;4912753;29;20099;-67
2020/12/07 03:11:56;;;;;;;65.90;32.22;;;4.90;98.10;;;;;;4907511;29;20161;-66
2020/12/07 03:14:22;;;;;;;69.90;32.92;;;4.90;98.10;;;;;;4947399;28;20040;-67
2020/12/07 03:16:47;;;;;;;69.45;32.67;;;4.90;98.10;;;;;;4929353;28;20082;-67
2020/12/07 03:19:13;;;;;;;71.50;30.85;;;4.90;98.10;;;;;;4946110;29;20047;-67
2020/12/07 03:21:39;;;;;;;67.72;31.95;;;4.90;98.20;;;;;;4926411;28;20097;-67
2020/12/07 03:24:05;;;;;;;69.22;31.65;;;4.90;98.20;;;;;;4928284;29;20027;-67
2020/12/07 03:26:34;;;;;;;67.97;32.00;;;4.90;98.20;;;;;;4916771;29;20028;-67
2020/12/07 03:29:02;;;;;;;59.33;31.27;;;4.90;98.20;;;;;;4930192;29;20028;-66
2020/12/07 03:31:31;;;;;;;66.05;31.50;;;5.00;98.20;;;;;;4925264;29;20372;-67
2020/12/07 03:33:57;;;;;;;64.63;31.13;;;5.00;98.30;;;;;;4909408;29;20119;-67
2020/12/07 03:36:23;;;;;;;71.07;33.38;;;5.00;98.20;;;;;;4885585;29;20043;-67
2020/12/07 03:38:49;;;;;;;64.63;30.75;;;4.90;98.20;;;;;;4940968;28;20480;-67
2020/12/07 03:41:15;;;;;;;62.08;31.73;;;5.00;98.30;;;;;;4929063;28;20036;-67
2020/12/07 03:43:41;;;;;;;73.22;33.00;;;5.00;98.30;;;;;;4925946;29;20051;-67
2020/12/07 03:46:06;;;;;;;69.32;31.92;;;5.00;98.30;;;;;;4919419;29;20048;-67
2020/12/07 03:48:32;;;;;;;78.18;34.05;;;5.00;98.30;;;;;;4922350;29;20028;-67
2020/12/07 03:50:57;;;;;;;69.45;31.95;;;5.00;98.30;;;;;;4927412;29;20444;-67
2020/12/07 03:53:23;;;;;;;69.25;32.35;;;5.00;98.30;;;;;;4926298;29;20088;-67
2020/12/07 03:55:49;;;;;;;64.63;31.63;;;5.10;98.30;;;;;;4925869;29;20040;-67
2020/12/07 03:58:14;;;;;;;66.75;33.22;;;5.10;98.30;;;;;;4926487;29;20036;-67
2020/12/07 04:00:40;;;;;;;69.13;32.67;;;5.00;98.30;;;;;;4918059;29;20308;-67
2020/12/07 04:03:09;;;;;;;67.90;32.58;;;5.00;98.30;;;;;;4897439;29;20090;-66
2020/12/07 04:08:20;;;;;;;69.00;31.73;;;5.10;98.30;;;;;;4937475;29;20302;-67
2020/12/07 04:10:46;;;;;;;65.82;32.78;;;5.10;98.30;;;;;;4937131;29;20394;-66
2020/12/07 04:13:12;;;;;;;66.05;32.42;;;5.10;98.30;;;;;;4924549;29;20055;-67
2020/12/07 04:15:37;;;;;;;64.63;31.15;;;5.10;98.30;;;;;;4924758;28;20032;-67
2020/12/07 04:18:03;;;;;;;67.75;31.60;;;5.10;98.30;;;;;;4925512;29;20115;-66
2020/12/07 04:20:29;;;;;;;64.43;31.75;;;5.10;98.30;;;;;;4926962;29;20023;-66
2020/12/07 04:22:54;;;;;;;62.22;31.42;;;5.10;98.30;;;;;;4915666;29;20135;-67
2020/12/07 04:25:21;;;;;;;58.22;31.67;;;5.10;98.30;;;;;;4901343;29;20036;-67
2020/12/07 04:27:47;;;;;;;67.68;31.42;;;5.10;98.30;;;;;;4913455;29;20121;-66
2020/12/07 04:30:12;;;;;;;66.47;32.33;;;5.10;98.30;;;;;;4908178;29;20110;-66
2020/12/07 04:32:38;;;;;;;56.80;30.38;;;5.10;98.30;;;;;;4914918;29;20485;-67
2020/12/07 04:35:03;;;;;;;67.10;32.47;;;5.10;98.30;;;;;;4930016;29;20127;-67
2020/12/07 04:37:29;;;;;;;63.53;31.42;;;5.10;98.30;;;;;;4929416;29;20118;-66
2020/12/07 04:39:55;;;;;;;65.65;30.88;;;5.10;98.30;;;;;;4926891;29;20034;-67
2020/12/07 04:42:21;;;;;;;61.17;31.13;;;5.10;98.30;;;;;;4925292;29;20489;-66
2020/12/07 04:44:47;;;;;;;61.75;32.75;;;5.10;98.30;;;;;;4924011;29;20070;-66
2020/12/07 04:47:16;;;;;;;60.47;31.60;;;5.10;98.30;;;;;;4920381;29;20036;-66
2020/12/07 04:49:42;;;;;;;59.28;31.35;;;5.10;98.30;;;;;;4902998;29;20521;-66
2020/12/07 04:52:09;;;;;;;61.47;31.45;;;5.10;98.30;;;;;;4922745;28;20028;-67
2020/12/07 04:54:37;;;;;;;64.07;31.20;;;5.10;98.30;;;;;;4929660;29;20427;-67
2020/12/07 04:57:05;;;;;;;58.90;30.35;;;5.10;98.30;;;;;;4909557;28;20062;-67
2020/12/07 04:59:34;;;;;;;60.75;31.15;;;5.10;98.30;;;;;;4904702;29;20024;-67
2020/12/07 05:02:03;;;;;;;62.28;31.63;;;5.10;98.30;;;;;;4907558;28;20167;-66
2020/12/07 05:04:28;;;;;;;61.63;31.92;;;5.10;98.30;;;;;;4907637;28;20123;-66
2020/12/07 05:07:00;;;;;;;60.95;31.58;;;5.10;98.30;;;;;;4911180;28;22314;-66
2020/12/07 05:09:27;;;;;;;62.22;31.48;;;5.00;98.30;;;;;;4906322;29;20058;-66
2020/12/07 05:11:54;;;;;;;63.10;32.17;;;5.00;98.30;;;;;;4908265;28;20042;-66
2020/12/07 05:14:20;;;;;;;65.18;31.65;;;5.00;98.30;;;;;;4907085;29;20023;-66
2020/12/07 05:16:48;;;;;;;61.58;31.92;;;5.00;98.40;;;;;;4906572;29;20028;-67
2020/12/07 05:19:13;;;;;;;62.63;30.60;;;5.00;98.40;;;;;;4905193;29;20244;-67
2020/12/07 05:21:39;;;;;;;64.85;31.40;;;5.10;98.40;;;;;;4915589;29;20239;-67
2020/12/07 05:24:05;;;;;;;58.75;30.95;;;5.10;98.40;;;;;;4911593;28;20448;-67
2020/12/07 05:26:34;;;;;;;63.28;31.20;;;5.10;98.40;;;;;;4923773;29;20098;-66
2020/12/07 05:29:05;;;;;;;64.72;30.75;;;5.10;98.40;;;;;;4912027;29;20082;-67
2020/12/07 05:31:33;;;;;;;63.13;31.70;;;5.00;98.40;;;;;;4920714;29;20036;-67
2020/12/07 05:33:59;;;;;;;68.85;32.45;;;5.10;98.40;;;;;;4917225;29;20036;-67
2020/12/07 05:36:25;;;;;;;64.93;31.88;;;5.10;98.40;;;;;;4927044;28;20047;-67
2020/12/07 05:38:50;;;;;;;67.90;33.50;;;5.10;98.40;;;;;;4917882;28;20102;-66
2020/12/07 05:41:17;;;;;;;67.30;32.10;;;5.10;98.50;;;;;;4912044;29;20024;-67
2020/12/07 05:43:45;;;;;;;64.60;32.58;;;5.10;98.40;;;;;;4918061;29;20032;-67
2020/12/07 05:46:11;;;;;;;69.22;32.50;;;5.10;98.50;;;;;;4922290;29;20044;-66
2020/12/07 05:48:37;;;;;;;61.75;30.83;;;5.10;98.40;;;;;;4908194;28;20028;-67
2020/12/07 05:51:07;;;;;;;67.63;31.27;;;5.10;98.50;;;;;;4891414;29;20138;-66
2020/12/07 05:53:38;;;;;;;64.38;31.42;;;5.10;98.50;;;;;;4910332;29;20509;-67
2020/12/07 05:56:05;;;;;;;66.70;32.25;;;5.10;98.50;;;;;;4936270;29;20107;-67
2020/12/07 05:58:59;;;;;;;66.50;32.42;;;5.10;98.50;;;;;;4914322;28;20050;-67
2020/12/07 06:01:26;;;;;;;66.30;31.75;;;5.10;98.50;;;;;;4915361;29;20071;-67
2020/12/07 06:03:53;;;;;;;65.72;33.63;;;5.20;98.50;;;;;;4910612;29;20032;-67
2020/12/07 06:06:33;;;;;;;63.30;33.88;;;5.10;98.50;;;;;;4918602;29;20097;-67
2020/12/07 06:09:03;;;;;;;62.33;31.90;;;5.10;98.50;;;;;;4908880;28;20449;-67
2020/12/07 06:11:34;;;;;;;60.85;32.50;;;5.20;98.50;;;;;;4890061;29;20042;-67
2020/12/07 06:14:00;;;;;;;60.05;31.88;;;5.10;98.50;;;;;;4902870;28;20038;-66
2020/12/07 06:16:27;;;;;;;59.90;31.17;;;5.10;98.50;;;;;;4944342;29;20476;-67
2020/12/07 06:18:56;;;;;;;61.92;31.52;;;5.20;98.50;;;;;;4921257;28;20112;-67
2020/12/07 06:21:22;;;;;;;60.35;31.17;;;5.20;98.50;;;;;;4918851;29;20020;-67
2020/12/07 06:23:48;;;;;;;62.00;31.58;;;5.30;98.50;;;;;;4918364;28;20414;-67
2020/12/07 06:26:15;;;;;;;62.63;31.90;;;5.20;98.50;;;;;;4907123;29;20119;-67
2020/12/07 06:28:43;;;;;;;59.53;31.75;;;5.30;98.50;;;;;;4889759;28;20036;-67
2020/12/07 06:31:13;;;;;;;62.80;30.70;;;5.30;98.50;;;;;;4910387;28;20058;-67
2020/12/07 06:33:50;;;;;;;54.40;30.27;;;5.30;98.40;;;;;;4927815;29;20038;-67
2020/12/07 06:36:27;;;;;;;59.05;30.67;;;5.30;98.40;;;;;;4955104;28;20417;-67
2020/12/07 06:39:09;;;;;;;57.22;30.58;;;5.30;98.40;;;;;;4907984;28;20271;-67
2020/12/07 06:41:40;;;;;;;58.17;31.33;;;5.30;98.40;;;;;;4924033;29;20425;-67
2020/12/07 06:44:11;;;;;;;54.55;29.50;;;5.30;98.40;;;;;;4893620;29;20028;-67
2020/12/07 06:46:52;;;;;;;57.50;30.58;;;5.30;98.40;;;;;;4906439;29;20043;-67
2020/12/07 06:49:22;;;;;;;53.08;29.60;;;5.30;98.40;;;;;;4911864;28;20425;-67
2020/12/07 06:51:59;;;;;;;54.75;29.77;;;5.30;98.40;;;;;;4933823;28;20109;-67
2020/12/07 06:57:27;;;;;;;59.20;29.17;;;5.30;98.40;;;;;;4926016;29;20035;-67
2020/12/07 07:00:16;;;;;;;52.13;28.65;;;5.30;98.40;;;;;;4920765;29;20072;-67
2020/12/07 07:02:53;;;;;;;57.88;29.73;;;5.30;98.40;;;;;;4896616;28;20024;-67
2020/12/07 07:05:21;;;;;;;56.83;28.88;;;5.40;98.40;;;;;;4904803;28;20473;-67
2020/12/07 07:07:47;;;;;;;52.25;30.02;;;5.40;98.40;;;;;;4905304;28;20127;-67
2020/12/07 07:10:14;;;;;;;55.65;30.05;;;5.40;98.40;;;;;;4923015;29;20186;-67
2020/12/07 07:12:41;;;;;;;57.90;30.27;;;5.40;98.40;;;;;;4929244;29;20110;-67
2020/12/07 07:15:09;;;;;;;52.58;31.23;;;5.40;98.40;;;;;;4923584;29;20745;-67
2020/12/07 07:17:40;;;;;;;54.15;31.10;;;5.50;98.40;;;;;;4914429;28;20028;-67
2020/12/07 07:20:08;;;;;;;55.50;32.13;;;5.40;98.40;;;;;;4916196;29;20028;-67
2020/12/07 07:22:36;;;;;;;55.55;31.30;;;5.50;98.40;;;;;;4909630;29;20044;-67
2020/12/07 07:30:14;;;;;;;51.70;28.67;;;5.50;98.40;;;;;;4928466;29;20132;-66
2020/12/07 07:32:41;;;;;;;50.75;29.65;;;5.60;98.40;;;;;;4896375;28;20473;-66
2020/12/07 07:35:08;;;;;;;46.63;29.08;;;5.60;98.30;;;;;;4911587;29;20032;-66
2020/12/07 07:37:33;;;;;;;48.58;29.30;;;5.60;98.30;;;;;;4920889;28;20027;-66
2020/12/07 07:40:02;;;;;;;51.05;29.50;;;5.60;98.30;;;;;;4925228;28;20039;-67
2020/12/07 07:42:30;;;;;;;45.50;27.63;;;5.60;98.20;;;;;;4928728;29;20073;-67
2020/12/07 07:44:56;;;;;;;46.28;28.38;;;5.60;98.20;;;;;;4928402;29;20358;-67
2020/12/07 07:47:48;;;;;;;45.95;27.58;;;5.60;98.10;;;;;;4919064;29;20024;-67
2020/12/07 07:53:41;;;;;;;45.50;27.92;;;5.60;98.00;;;;;;4931378;28;20071;-66
2020/12/07 08:15:30;;;;;;;51.88;30.30;;;5.60;97.70;;;;;;4909486;29;20070;-67
2020/12/07 08:18:00;;;;;;;51.03;29.30;;;5.60;97.70;;;;;;4914279;29;20452;-66
2020/12/07 08:20:39;;;;;;;48.28;31.20;;;5.60;97.70;;;;;;4910299;29;20083;-66
2020/12/07 08:23:07;;;;;;;52.47;31.83;;;5.50;97.70;;;;;;4923156;29;20028;-66
2020/12/07 08:25:46;;;;;;;54.75;30.92;;;5.50;97.70;;;;;;4923929;29;20028;-66
2020/12/07 08:28:34;;;;;;;58.47;32.70;;;5.50;97.60;;;;;;4921884;28;20019;-68
2020/12/07 08:31:06;;;;;;;55.17;31.67;;;5.50;97.60;;;;;;4959498;28;20084;-66
2020/12/07 08:33:34;;;;;;;60.55;35.22;;;5.50;97.60;;;;;;4921810;29;20866;-66
2020/12/07 08:36:01;;;;;;;55.10;31.77;;;5.50;97.50;;;;;;4922701;29;20066;-66
2020/12/07 08:38:30;;;;;;;59.10;32.72;;;5.50;97.40;;;;;;4913543;28;20038;-66
2020/12/07 08:41:10;;;;;;;57.20;33.80;;;5.50;97.40;;;;;;4934038;28;20049;-66
2020/12/07 08:43:38;;;;;;;60.27;34.47;;;5.50;97.40;;;;;;4953455;28;20342;-67
2020/12/07 08:46:05;;;;;;;56.80;33.88;;;5.50;97.50;;;;;;4899831;28;20035;-67
2020/12/07 08:48:31;;;;;;;57.53;32.88;;;5.40;97.40;;;;;;4925131;28;20380;-66
2020/12/07 08:50:57;;;;;;;58.20;33.97;;;5.40;97.40;;;;;;4943698;28;20156;-65
2020/12/07 08:53:22;;;;;;;58.80;34.10;;;5.40;97.40;;;;;;4935421;28;20527;-66
2020/12/07 08:55:49;;;;;;;60.33;35.08;;;5.50;97.40;;;;;;4915685;28;20107;-67
2020/12/07 08:58:15;;;;;;;59.20;35.47;;;5.40;97.40;;;;;;4932775;28;20104;-66
2020/12/07 09:00:40;;;;;;;61.40;35.70;;;5.40;97.40;;;;;;4929971;28;20107;-66
2020/12/07 09:03:06;;;;;;;68.97;36.38;;;5.40;97.40;;;;;;4930774;28;20117;-66
2020/12/07 09:05:32;;;;;;;59.42;33.92;;;5.40;97.40;;;;;;4930878;28;20043;-66
2020/12/07 09:07:57;;;;;;;61.33;35.75;;;5.30;97.30;;;;;;4924696;28;20049;-66
2020/12/07 09:10:23;;;;;;;65.70;36.38;;;5.30;97.20;;;;;;4920150;28;20059;-65
2020/12/07 09:12:48;;;;;;;65.15;36.17;;;5.30;97.10;;;;;;4928440;28;20459;-66
2020/12/07 09:15:14;;;;;;;66.07;36.00;;;5.10;97.10;;;;;;4937316;28;20246;-66
2020/12/07 09:17:40;;;;;;;71.13;36.90;;;5.20;97.20;;;;;;4935627;28;20456;-66
2020/12/07 09:20:05;;;;;;;64.03;37.38;;;5.10;97.20;;;;;;4937108;28;20127;-66
2020/12/07 09:22:31;;;;;;;68.43;36.67;;;5.10;97.10;;;;;;4934697;28;20046;-66
2020/12/07 09:24:57;;;;;;;62.00;35.22;;;5.10;97.10;;;;;;4935050;28;20035;-66
2020/12/07 09:27:22;;;;;;;66.85;35.75;;;5.10;97.10;;;;;;4920297;28;20035;-66
2020/12/07 09:29:48;;;;;;;65.45;35.15;;;5.00;97.20;;;;;;4939017;28;20068;-66
2020/12/07 09:32:14;;;;;;;62.00;34.90;;;5.00;97.10;;;;;;4935040;28;20028;-66
2020/12/07 09:34:39;;;;;;;60.83;35.47;;;5.00;97.10;;;;;;4934990;28;20027;-66
2020/12/07 09:37:05;;;;;;;63.33;34.08;;;4.90;97.10;;;;;;4915102;28;20175;-65
2020/12/07 09:39:30;;;;;;;62.63;33.33;;;4.80;97.00;;;;;;4933683;28;20523;-66
2020/12/07 09:41:57;;;;;;;55.17;30.08;;;4.70;97.00;;;;;;4934414;29;20126;-66
2020/12/07 09:44:24;;;;;;;53.08;30.63;;;4.70;96.80;;;;;;4935478;29;20028;-66
2020/12/07 09:46:52;;;;;;;49.15;27.27;;;4.60;96.90;;;;;;4934543;29;20040;-66
2020/12/07 09:49:18;;;;;;;47.70;26.85;;;4.60;96.80;;;;;;4941628;28;20023;-66
2020/12/07 09:51:44;;;;;;;45.42;25.75;;;4.60;96.70;;;;;;4934641;28;20110;-66
2020/12/07 09:54:09;;;;;;;48.33;25.77;;;4.60;96.40;;;;;;4931591;28;20029;-66
2020/12/07 09:56:35;;;;;;;45.55;23.83;;;4.50;96.30;;;;;;4935065;28;20031;-66
2020/12/07 09:59:01;;;;;;;46.65;24.83;;;4.50;96.30;;;;;;4939213;28;20360;-66
2020/12/07 10:01:26;;;;;;;51.92;25.23;;;4.40;96.30;;;;;;4952502;28;20114;-66
2020/12/07 10:03:52;;;;;;;46.03;24.58;;;4.40;96.30;;;;;;4930128;28;20028;-66
2020/12/07 10:06:17;;;;;;;43.90;23.52;;;4.40;96.40;;;;;;4935660;28;20040;-66
2020/12/07 10:08:43;;;;;;;45.28;22.88;;;4.40;96.40;;;;;;4933833;28;20108;-65
2020/12/07 10:11:12;;;;;;;43.13;23.95;;;4.40;96.30;;;;;;4938520;28;20032;-66
2020/12/07 10:13:37;;;;;;;44.70;22.17;;;4.40;96.50;;;;;;4935396;28;20323;-65
2020/12/07 10:16:03;;;;;;;43.75;22.58;;;4.40;96.20;;;;;;4934130;28;20397;-66
2020/12/07 10:18:29;;;;;;;41.78;21.75;;;4.40;96.20;;;;;;4939199;28;20149;-66
2020/12/07 10:20:54;;;;;;;38.42;20.88;;;4.40;96.20;;;;;;4931861;28;20111;-66
2020/12/07 10:23:20;;;;;;;40.05;21.80;;;4.30;95.90;;;;;;4937868;28;20027;-66
2020/12/07 10:25:50;;;;;;;41.25;21.05;;;4.30;95.80;;;;;;4908235;28;20455;-66
2020/12/07 10:28:15;;;;;;;41.35;22.98;;;4.30;95.90;;;;;;4917936;28;20051;-66
2020/12/07 10:30:41;;;;;;;38.83;20.98;;;4.30;96.10;;;;;;4941830;28;20031;-67
2020/12/07 10:33:07;;;;;;;38.47;20.80;;;4.30;96.10;;;;;;4940549;28;20122;-66
2020/12/07 10:35:32;;;;;;;42.28;21.58;;;4.30;96.20;;;;;;4925340;28;20396;-67
2020/12/07 10:37:58;;;;;;;40.78;21.88;;;4.30;96.10;;;;;;4938869;28;20036;-66
2020/12/07 10:40:24;;;;;;;37.47;21.67;;;4.30;96.10;;;;;;4943843;28;20054;-66
2020/12/07 10:42:49;;;;;;;41.70;21.27;;;4.20;96.10;;;;;;4939054;28;20075;-66
2020/12/07 10:45:15;;;;;;;39.30;21.02;;;4.30;96.20;;;;;;4930872;28;20072;-66
2020/12/07 10:47:40;;;;;;;36.90;20.60;;;4.30;96.20;;;;;;4942169;28;20050;-67
2020/12/07 10:50:06;;;;;;;34.97;20.58;;;4.30;96.20;;;;;;4946894;28;20484;-67
2020/12/07 10:52:31;;;;;;;35.35;19.52;;;4.30;96.10;;;;;;4937025;28;20142;-66
2020/12/07 10:54:57;;;;;;;37.42;19.85;;;4.30;96.00;;;;;;4936241;28;20039;-66
2020/12/07 10:57:23;;;;;;;35.53;20.05;;;4.30;96.00;;;;;;4933815;28;20043;-66
2020/12/07 10:59:48;;;;;;;33.08;18.52;;;4.30;95.80;;;;;;4942246;28;20023;-67
2020/12/07 11:02:14;;;;;;;32.33;18.27;;;4.30;95.60;;;;;;4932446;28;20114;-67
2020/12/07 11:04:40;;;;;;;31.88;18.35;;;4.40;95.70;;;;;;4934553;28;20054;-66
2020/12/07 11:07:11;;;;;;;26.63;15.70;;;4.40;95.90;;;;;;4930928;28;20031;-66
2020/12/07 11:09:36;;;;;;;25.30;15.60;;;4.50;95.20;;;;;;4940266;28;20288;-65
2020/12/07 11:12:05;;;;;;;23.77;14.10;;;4.60;95.20;;;;;;4939545;28;20531;-66
2020/12/07 11:14:31;;;;;;;23.75;14.40;;;4.60;94.70;;;;;;4937352;29;20036;-66
2020/12/07 11:16:59;;;;;;;26.50;14.00;;;4.60;94.40;;;;;;4922725;28;20059;-65
2020/12/07 11:19:25;;;;;;;21.35;12.48;;;4.70;94.40;;;;;;4943357;28;20116;-66
2020/12/07 11:21:50;;;;;;;24.48;14.40;;;4.70;94.20;;;;;;4914242;28;20123;-66
2020/12/07 11:24:17;;;;;;;22.52;12.75;;;4.60;94.00;;;;;;4912599;28;20032;-66
2020/12/07 11:26:42;;;;;;;22.50;13.77;;;4.70;94.30;;;;;;4935429;28;20036;-66
2020/12/07 11:29:08;;;;;;;23.10;14.18;;;4.70;94.40;;;;;;4934571;28;20100;-66
2020/12/07 11:31:34;;;;;;;24.30;14.27;;;4.80;94.60;;;;;;4938403;28;20039;-65
2020/12/07 11:34:00;;;;;;;27.00;15.05;;;4.70;94.30;;;;;;4913137;28;20053;-66
2020/12/07 11:36:26;;;;;;;24.83;14.55;;;4.70;94.40;;;;;;4934284;28;20354;-65
2020/12/07 11:44:15;;;;;;;23.77;13.95;;;4.60;94.50;;;;;;4933306;28;20031;-66
2020/12/07 11:46:48;;;;;;;23.55;15.35;;;4.60;94.70;;;;;;4913112;28;20028;-66
2020/12/07 11:49:13;;;;;;;28.08;15.93;;;4.60;94.90;;;;;;4939472;28;20103;-66
2020/12/07 11:51:39;;;;;;;24.60;14.27;;;4.60;94.70;;;;;;4924947;28;20436;-66
2020/12/07 11:54:05;;;;;;;23.15;14.02;;;4.70;94.30;;;;;;4928941;28;20066;-67
2020/12/07 11:56:33;;;;;;;22.63;13.52;;;4.70;94.50;;;;;;4930422;28;20664;-66
2020/12/07 11:58:59;;;;;;;18.88;11.50;;;4.70;94.30;;;;;;4936025;28;20081;-66
2020/12/07 12:01:25;;;;;;;19.13;11.85;;;4.70;94.10;;;;;;4934528;28;20041;-66
2020/12/07 12:03:50;;;;;;;21.88;12.13;;;4.70;94.10;;;;;;4930670;29;20031;-66
2020/12/07 12:06:24;;;;;;;18.17;11.40;;;4.70;94.10;;;;;;4935766;29;20038;-67
2020/12/07 12:08:50;;;;;;;19.02;11.85;;;4.70;93.60;;;;;;4928396;28;20438;-66
2020/12/07 12:11:16;;;;;;;16.15;11.15;;;4.70;94.00;;;;;;4932361;28;20047;-66
2020/12/07 12:13:42;;;;;;;15.48;10.18;;;4.70;94.00;;;;;;4930815;28;20058;-67
2020/12/07 12:16:07;;;;;;;17.45;10.77;;;4.70;94.30;;;;;;4936279;28;20043;-66
2020/12/07 12:18:33;;;;;;;14.65;10.00;;;4.60;93.80;;;;;;4932766;28;20395;-66
2020/12/07 12:20:59;;;;;;;15.07;10.00;;;4.60;94.00;;;;;;4936299;28;20043;-66
2020/12/07 12:23:25;;;;;;;13.68;9.88;;;4.60;94.20;;;;;;4926288;28;20028;-66
2020/12/07 12:25:50;;;;;;;14.77;9.48;;;4.60;94.40;;;;;;4907582;28;20040;-67
2020/12/07 12:28:16;;;;;;;15.35;9.57;;;4.60;94.30;;;;;;4910295;28;20059;-66
2020/12/07 12:30:42;;;;;;;13.30;9.70;;;4.60;94.20;;;;;;4910954;28;20074;-67
2020/12/07 12:33:08;;;;;;;14.80;9.98;;;4.60;94.30;;;;;;4913254;28;20038;-66
2020/12/07 12:35:33;;;;;;;15.07;8.90;;;4.60;94.50;;;;;;4913064;29;22355;-68
2020/12/07 12:37:59;;;;;;;15.68;8.93;;;4.60;94.10;;;;;;4909775;28;20820;-67
2020/12/07 12:40:25;;;;;;;15.48;9.25;;;4.60;94.40;;;;;;4913837;28;20048;-66
2020/12/07 12:42:51;;;;;;;13.68;8.75;;;4.50;94.20;;;;;;4910064;29;20056;-68
2020/12/07 12:45:17;;;;;;;15.85;9.15;;;4.50;94.30;;;;;;4910796;28;20039;-67
2020/12/07 12:47:43;;;;;;;13.82;9.38;;;4.50;94.50;;;;;;4909847;28;20051;-67
2020/12/07 12:50:08;;;;;;;13.45;8.75;;;4.50;94.60;;;;;;4913341;28;20035;-67
2020/12/07 12:52:34;;;;;;;12.20;8.60;;;4.40;94.50;;;;;;4910113;29;20108;-68
2020/12/07 12:55:00;;;;;;;14.10;9.18;;;4.40;94.40;;;;;;4910820;28;20038;-68
2020/12/07 12:57:26;;;;;;;16.15;9.40;;;4.40;94.60;;;;;;4910908;28;20076;-66
2020/12/07 12:59:52;;;;;;;14.95;9.65;;;4.40;94.50;;;;;;4912761;28;20753;-68
2020/12/07 13:02:18;;;;;;;15.57;8.98;;;4.40;94.50;;;;;;4896044;29;20568;-67
2020/12/07 13:04:44;;;;;;;14.07;9.35;;;4.40;94.70;;;;;;4910921;28;20135;-67
2020/12/07 13:07:10;;;;;;;14.82;9.10;;;4.40;94.70;;;;;;4913619;28;20131;-68
2020/12/07 13:09:35;;;;;;;14.70;10.23;;;4.40;94.60;;;;;;4910876;28;20039;-67
2020/12/07 13:12:01;;;;;;;14.13;9.48;;;4.40;94.70;;;;;;4896887;28;20076;-67
2020/12/07 13:14:26;;;;;;;16.30;10.18;;;4.40;94.60;;;;;;4912449;28;20419;-67
2020/12/07 13:17:04;;;;;;;13.55;9.23;;;4.40;94.50;;;;;;4907327;29;20421;-68